Time;durP1;ratioP1;P1;durP2;ratioP2;P2;SDS_P1;SDS_P2;PMS_P1;PMS_P2;Temp;Humidity;BMP_temperature;BMP_pressure;BME280_temperature;BME280_humidity;BME280_pressure;Samples;Min_cycle;Max_cycle;Signal;HPM_P1;HPM_P2
2022/02/10 00:15:41;;;;;;;;;48.75;40.00;;;;;9.35;72.45;101356.75;4903313;29;45425;-67
2022/02/10 00:20:54;;;;;;;;;43.75;33.50;;;;;9.34;72.29;101351.53;4902239;29;45721;-66
2022/02/10 00:23:39;;;;;;;;;46.00;35.75;;;;;9.28;72.32;101349.03;4902707;28;45296;-67
2022/02/10 00:34:28;;;;;;;;;45.00;36.00;;;;;9.21;72.97;101357.03;4901609;29;45357;-66
2022/02/10 00:40:14;;;;;;;;;44.75;35.25;;;;;9.16;73.06;101353.66;4901391;28;45314;-65
2022/02/10 00:42:14;;;;;;;;;47.50;38.25;;;;;9.15;72.84;101351.09;4893951;28;46027;-65
2022/02/10 00:44:39;;;;;;;;;47.50;38.00;;;;;9.14;73.54;101355.47;4901215;29;45235;-65
2022/02/10 00:47:05;;;;;;;;;45.00;35.25;;;;;9.15;73.31;101358.97;4904028;28;45173;-65
2022/02/10 00:49:30;;;;;;;;;47.25;36.75;;;;;9.15;73.35;101359.81;4901708;28;45274;-65
2022/02/10 00:51:56;;;;;;;;;45.50;37.50;;;;;9.12;73.27;101364.28;4899605;29;46058;-66
2022/02/10 00:54:26;;;;;;;;;45.25;37.00;;;;;9.11;73.47;101360.78;4901254;28;45893;-66
2022/02/10 00:56:52;;;;;;;;;44.00;33.50;;;;;9.12;73.36;101356.41;4902902;28;45463;-65
2022/02/10 01:10:27;;;;;;;;;45.00;36.50;;;;;9.02;73.28;101359.22;4901063;29;45330;-67
2022/02/10 01:12:53;;;;;;;;;41.00;34.50;;;;;8.97;73.46;101347.94;4901316;29;45296;-65
2022/02/10 01:31:45;;;;;;;;;44.25;35.00;;;;;8.97;73.92;101378.56;4903033;29;45474;-66
2022/02/10 01:34:11;;;;;;;;;43.25;35.25;;;;;8.93;74.33;101371.66;4903229;29;45446;-66
2022/02/10 01:36:37;;;;;;;;;43.50;35.00;;;;;8.88;74.46;101371.75;4915133;28;45292;-65
2022/02/10 01:39:04;;;;;;;;;44.50;36.75;;;;;8.81;74.52;101381.50;4901191;28;45281;-66
2022/02/10 01:58:35;;;;;;;;;44.25;37.25;;;;;8.31;76.01;101379.75;4900676;29;45501;-65
2022/02/10 02:03:42;;;;;;;;;48.75;38.75;;;;;8.28;76.53;101382.44;4899600;29;45365;-65
2022/02/10 02:06:14;;;;;;;;;50.25;41.00;;;;;8.24;76.88;101382.53;4899141;29;45901;-67
2022/02/10 02:08:41;;;;;;;;;42.00;34.25;;;;;8.18;77.01;101375.63;4914388;28;45454;-66
2022/02/10 02:11:07;;;;;;;;;41.75;34.50;;;;;8.18;77.52;101380.88;4899928;28;45769;-67
2022/02/10 02:13:33;;;;;;;;;46.25;38.00;;;;;8.13;77.12;101370.50;4898253;29;45534;-68
2022/02/10 02:15:59;;;;;;;;;48.00;36.75;;;;;8.15;77.99;101373.06;4899491;29;45453;-65
2022/02/10 02:18:26;;;;;;;;;50.75;34.75;;;;;8.10;78.26;101372.28;4906317;29;45443;-74
2022/02/10 02:20:54;;;;;;;;;47.00;37.75;;;;;8.14;77.95;101381.81;4901131;29;45378;-77
2022/02/10 02:23:21;;;;;;;;;41.75;36.00;;;;;8.12;78.68;101387.09;4901029;29;46092;-68
2022/02/10 02:25:51;;;;;;;;;44.50;35.75;;;;;8.07;79.16;101382.81;4900813;28;45536;-66
2022/02/10 02:28:17;;;;;;;;;41.50;34.50;;;;;8.00;78.74;101387.31;4901167;28;45479;-74
2022/02/10 02:30:51;;;;;;;;;39.50;33.00;;;;;7.96;79.44;101386.47;4901170;28;45410;-75
2022/02/10 02:36:55;;;;;;;;;40.25;34.00;;;;;7.92;79.80;101378.69;4903094;29;45800;-74
2022/02/10 02:40:24;;;;;;;;;36.50;32.00;;;;;7.96;80.73;101377.78;4904627;29;45431;-70
2022/02/10 03:06:32;;;;;;;;;36.50;33.25;;;;;7.86;79.25;101358.72;4921516;28;45406;-65
2022/02/10 03:09:03;;;;;;;;;36.75;32.75;;;;;7.85;79.28;101354.34;4922772;28;45431;-65
2022/02/10 03:11:29;;;;;;;;;36.50;31.75;;;;;7.90;79.18;101357.75;4924088;28;45239;-66
2022/02/10 03:14:04;;;;;;;;;35.75;32.75;;;;;7.93;79.50;101355.09;4922032;28;45274;-69
2022/02/10 03:22:12;;;;;;;;;38.50;30.25;;;;;8.02;78.62;101361.94;4921937;28;45454;-67
2022/02/10 04:03:26;;;;;;;;;32.00;30.75;;;;;7.89;77.24;101379.63;4922469;28;46021;-64
2022/02/10 04:16:16;;;;;;;;;43.75;32.25;;;;;7.83;77.62;101408.53;4921396;28;45215;-67
2022/02/10 04:21:48;;;;;;;;;35.75;31.50;;;;;7.74;77.79;101399.03;4921062;28;45558;-66
2022/02/10 04:24:54;;;;;;;;;40.25;30.75;;;;;7.77;77.78;101398.16;4920436;28;46238;-64
2022/02/10 04:27:35;;;;;;;;;37.75;33.00;;;;;7.77;77.79;101408.63;4920271;28;45336;-70
2022/02/10 04:30:34;;;;;;;;;46.00;36.00;;;;;7.75;78.25;101411.25;4920741;28;45292;-71
2022/02/10 04:55:10;;;;;;;;;40.75;32.25;;;;;7.47;78.34;101424.75;4922572;28;45299;-66
2022/02/10 05:34:09;;;;;;;;;34.50;30.25;;;;;7.51;77.00;101417.72;4879641;29;45476;-65
2022/02/10 05:36:37;;;;;;;;;35.25;30.50;;;;;7.48;77.05;101420.38;4879969;29;45410;-64
2022/02/10 05:39:13;;;;;;;;;36.75;30.25;;;;;7.48;77.89;101415.16;4898317;28;46158;-65
2022/02/10 05:47:20;;;;;;;;;35.25;31.00;;;;;7.50;77.83;101423.84;4920021;28;45351;-71
2022/02/10 05:54:44;;;;;;;;;35.75;29.25;;;;;7.56;77.47;101442.94;4921027;28;45307;-76
2022/02/10 06:03:00;;;;;;;;;34.00;29.25;;;;;7.57;77.34;101449.06;4919615;28;45193;-72
2022/02/10 07:13:44;;;;;;;;;36.25;30.50;;;;;7.77;76.47;101479.34;4922192;28;45485;-65
2022/02/10 07:16:25;;;;;;;;;39.25;31.25;;;;;7.78;77.17;101481.06;4923315;28;45971;-65
2022/02/10 07:49:43;;;;;;;;;44.50;34.00;;;;;7.92;76.37;101476.50;4920241;28;45484;-64
2022/02/10 08:54:35;;;;;;;;;47.25;35.25;;;;;8.88;73.97;101553.66;4899973;28;45344;-62
2022/02/10 08:57:18;;;;;;;;;49.00;39.00;;;;;8.96;73.91;101545.63;4900301;29;45388;-62
2022/02/10 09:07:07;;;;;;;;;43.50;35.00;;;;;8.97;72.74;101551.75;4903321;28;45464;-66
2022/02/10 09:26:55;;;;;;;;;43.00;33.00;;;;;9.14;71.84;101554.09;4904021;29;45317;-60
2022/02/10 10:01:16;;;;;;;;;45.75;35.75;;;;;9.65;69.67;101576.75;4902018;28;45194;-62
2022/02/10 10:03:52;;;;;;;;;41.75;33.75;;;;;9.66;69.61;101575.84;4902105;28;45396;-63
2022/02/10 10:06:24;;;;;;;;;40.75;34.00;;;;;9.77;69.37;101581.75;4901044;29;45365;-62
2022/02/10 10:09:24;;;;;;;;;43.50;33.25;;;;;9.83;68.88;101585.16;4900796;28;45445;-62
2022/02/10 10:15:21;;;;;;;;;39.50;33.00;;;;;9.91;68.94;101586.69;4879815;29;45566;-61
2022/02/10 10:54:32;;;;;;;;;32.25;26.50;;;;;10.65;66.54;101597.38;4902253;28;45995;-62
2022/02/10 10:57:04;;;;;;;;;30.75;26.75;;;;;10.75;65.66;101594.50;4902220;28;45462;-63
2022/02/10 11:41:47;;;;;;;;;35.50;29.00;;;;;11.48;63.26;101559.22;4902120;29;45339;-63
2022/02/10 14:14:38;;;;;;;;;15.75;15.50;;;;;11.03;69.14;101439.31;4899740;28;45998;-61
2022/02/10 14:17:13;;;;;;;;;18.75;15.50;;;;;11.08;69.47;101434.78;4901413;29;45395;-63
2022/02/10 14:19:44;;;;;;;;;18.00;16.50;;;;;11.13;68.09;101428.53;4902201;28;45487;-62
2022/02/10 14:27:20;;;;;;;;;20.75;16.00;;;;;11.18;68.37;101430.13;4899660;29;45345;-62
2022/02/10 14:29:46;;;;;;;;;16.25;15.75;;;;;11.22;67.88;101415.97;4898210;29;45357;-61
2022/02/10 14:32:15;;;;;;;;;20.00;18.00;;;;;11.25;67.77;101415.88;4899750;28;45622;-63
2022/02/10 14:34:41;;;;;;;;;17.00;12.00;;;;;11.29;67.64;101418.41;4898943;28;45331;-63
2022/02/10 16:17:13;;;;;;;;;19.50;15.00;;;;;10.81;64.93;101381.19;4900608;29;45267;-62
2022/02/10 16:19:41;;;;;;;;;14.50;13.25;;;;;10.82;64.79;101386.38;4901483;28;45367;-62
2022/02/10 16:24:37;;;;;;;;;11.75;11.75;;;;;10.84;64.07;101383.72;4901090;28;45336;-60
2022/02/10 16:27:17;;;;;;;;;15.50;12.75;;;;;10.85;63.60;101374.91;4900205;28;45377;-62
2022/02/10 16:29:42;;;;;;;;;15.75;13.75;;;;;10.82;63.53;101364.47;4900907;28;45267;-60
2022/02/10 16:32:12;;;;;;;;;17.75;13.75;;;;;10.84;63.73;101380.22;4899682;29;46448;-63
2022/02/10 16:34:40;;;;;;;;;18.25;16.50;;;;;10.85;64.49;101380.19;4902768;28;45451;-62
2022/02/10 16:37:16;;;;;;;;;23.50;19.75;;;;;10.86;63.88;101368.75;4903303;28;45228;-63
2022/02/10 16:39:42;;;;;;;;;22.25;18.00;;;;;10.87;64.68;101378.38;4904191;28;45398;-62
2022/02/10 16:42:12;;;;;;;;;18.00;15.00;;;;;10.86;64.52;101368.75;4903057;28;46140;-62
2022/02/10 16:44:38;;;;;;;;;14.50;14.50;;;;;10.89;64.38;101368.66;4902378;28;45347;-63
2022/02/10 16:47:06;;;;;;;;;18.75;15.75;;;;;10.88;64.53;101371.31;4902800;28;45379;-63
2022/02/10 16:49:32;;;;;;;;;22.75;17.00;;;;;10.89;64.26;101370.41;4900499;29;45545;-60
2022/02/10 16:51:58;;;;;;;;;18.50;17.00;;;;;10.87;64.82;101378.38;4902049;28;46319;-63
2022/02/10 16:54:31;;;;;;;;;22.50;16.00;;;;;10.87;64.55;101373.09;4901969;29;45348;-62
2022/02/10 16:57:14;;;;;;;;;19.50;16.75;;;;;10.83;65.17;101379.38;4904137;28;45403;-62
2022/02/10 16:59:49;;;;;;;;;22.50;16.00;;;;;10.78;64.77;101363.69;4902360;28;45303;-62
2022/02/10 17:02:32;;;;;;;;;19.75;17.00;;;;;10.84;65.30;101381.09;4899555;29;48439;-64
2022/02/10 17:45:23;;;;;;;;;23.00;19.25;;;;;8.36;97.13;101460.97;4913257;28;45879;-64
2022/02/10 17:53:26;;;;;;;;;13.00;11.75;;;;;7.73;99.17;101482.00;4919011;28;45771;-67
2022/02/10 17:55:53;;;;;;;;;10.25;8.25;;;;;7.51;100.00;101491.03;4918270;28;45425;-65
2022/02/10 17:58:22;;;;;;;;;8.00;8.00;;;;;7.24;100.00;101493.97;4917180;28;45457;-65
2022/02/10 18:00:52;;;;;;;;;4.75;4.00;;;;;7.08;100.00;101497.63;4919748;28;45293;-66
2022/02/10 18:03:18;;;;;;;;;5.50;5.50;;;;;6.94;100.00;101511.72;4917452;28;45417;-68
2022/02/10 18:08:33;;;;;;;;;15.00;11.50;;;;;6.88;100.00;101514.38;4901465;29;45390;-66
2022/02/10 18:16:48;;;;;;;;;9.25;7.75;;;;;6.74;98.72;101524.97;4905018;28;46067;-73
2022/02/10 18:19:21;;;;;;;;;16.50;14.50;;;;;6.63;95.94;101534.66;4918669;28;45245;-73
2022/02/10 19:10:01;;;;;;;;;3.75;3.50;;;;;6.07;86.17;101611.69;4921668;28;46015;-68
2022/02/10 19:12:30;;;;;;;;;2.00;2.00;;;;;6.03;86.35;101619.53;4921500;28;45444;-68
2022/02/10 19:15:42;;;;;;;;;4.00;3.00;;;;;5.98;86.46;101622.16;4929388;28;45400;-69
2022/02/10 19:17:43;;;;;;;;;2.00;2.00;;;;;5.93;86.16;101632.59;4914983;28;45333;-68
2022/02/10 19:20:09;;;;;;;;;3.00;2.25;;;;;5.89;86.55;101632.63;4921405;28;45859;-68
2022/02/10 19:22:35;;;;;;;;;2.00;2.00;;;;;5.83;85.96;101639.59;4921592;28;45441;-66
2022/02/10 19:25:01;;;;;;;;;2.00;2.00;;;;;5.70;86.49;101638.75;4920981;28;45383;-68
2022/02/10 19:27:26;;;;;;;;;2.25;2.00;;;;;5.65;86.80;101634.41;4921163;28;45346;-68
2022/02/10 19:29:57;;;;;;;;;2.00;2.00;;;;;5.61;87.09;101637.91;4920789;28;45899;-67
2022/02/10 19:32:26;;;;;;;;;4.75;4.75;;;;;5.59;88.10;101637.03;4920933;28;45328;-67
2022/02/10 19:34:54;;;;;;;;;5.50;4.25;;;;;5.58;88.87;101630.09;4921494;28;45373;-67
2022/02/10 19:37:19;;;;;;;;;5.00;5.00;;;;;5.68;89.49;101643.13;4921645;28;45452;-66
2022/02/10 19:39:51;;;;;;;;;5.00;4.50;;;;;5.74;89.32;101649.19;4921285;28;45789;-65
2022/02/10 19:42:16;;;;;;;;;3.50;2.25;;;;;5.71;89.01;101647.44;4921164;28;45342;-68
2022/02/10 19:44:41;;;;;;;;;4.00;3.75;;;;;5.70;89.43;101653.53;4920880;28;45303;-67
2022/02/10 19:47:07;;;;;;;;;6.75;5.50;;;;;5.65;89.30;101656.19;4923165;28;45341;-67
2022/02/10 19:49:32;;;;;;;;;3.25;3.25;;;;;5.56;88.39;101656.22;4924246;28;46146;-66
2022/02/10 19:51:58;;;;;;;;;4.00;4.00;;;;;5.56;88.88;101658.81;4922062;28;45438;-68
2022/02/10 19:54:27;;;;;;;;;4.25;4.25;;;;;5.56;89.16;101659.66;4924555;28;45276;-67
2022/02/10 19:56:55;;;;;;;;;2.50;1.50;;;;;5.57;88.99;101663.16;4922324;28;45362;-69
2022/02/10 19:59:25;;;;;;;;;5.25;4.00;;;;;5.57;88.61;101676.22;4923260;28;45414;-66
2022/02/10 20:01:52;;;;;;;;;8.00;6.50;;;;;5.56;89.21;101677.09;4925715;28;45239;-67
2022/02/10 20:04:20;;;;;;;;;9.25;6.50;;;;;5.51;89.61;101668.41;4925329;28;45439;-67
2022/02/10 20:06:45;;;;;;;;;36.00;29.50;;;;;5.49;89.67;101663.16;4919620;28;45548;-66
2022/02/10 20:09:11;;;;;;;;;22.25;18.25;;;;;5.53;89.90;101664.91;4919455;28;46008;-67
2022/02/10 20:11:36;;;;;;;;;12.50;8.25;;;;;5.48;90.13;101665.78;4921730;28;45435;-66
2022/02/10 20:14:02;;;;;;;;;7.25;6.00;;;;;5.55;89.93;101664.91;4922920;28;45724;-69
2022/02/10 20:16:27;;;;;;;;;7.00;6.00;;;;;5.60;89.78;101665.78;4921663;28;45379;-67
2022/02/10 20:18:52;;;;;;;;;10.50;10.50;;;;;5.63;89.38;101680.53;4921393;28;46598;-69
2022/02/10 20:21:18;;;;;;;;;3.25;3.25;;;;;5.62;88.67;101689.25;4920054;28;45542;-67
2022/02/10 20:23:45;;;;;;;;;6.00;6.00;;;;;5.60;89.05;101686.66;4921398;28;45243;-67
2022/02/10 20:26:12;;;;;;;;;21.25;21.25;;;;;5.58;89.02;101682.28;4921418;28;45629;-67
2022/02/10 20:28:37;;;;;;;;;7.75;7.25;;;;;5.63;89.77;101689.25;4922299;28;45999;-71
2022/02/10 20:31:03;;;;;;;;;8.00;7.00;;;;;5.64;89.80;101691.00;4921689;28;45594;-67
2022/02/10 20:33:30;;;;;;;;;9.50;8.75;;;;;5.66;89.19;101693.59;4920733;28;45541;-69
2022/02/10 20:35:59;;;;;;;;;11.50;10.50;;;;;5.62;89.47;101687.50;4920304;28;45432;-67
2022/02/10 20:38:25;;;;;;;;;9.50;9.50;;;;;5.67;89.86;101691.00;4919582;28;47237;-67
2022/02/10 20:41:02;;;;;;;;;8.25;8.00;;;;;5.65;88.90;101676.19;4920400;28;45371;-67
2022/02/10 20:43:28;;;;;;;;;11.75;10.75;;;;;5.70;88.57;101667.47;4919818;28;45245;-68
2022/02/10 20:45:59;;;;;;;;;8.25;8.25;;;;;5.68;87.89;101670.94;4921355;28;45362;-66
2022/02/10 20:48:27;;;;;;;;;6.00;6.00;;;;;5.61;87.43;101683.16;4922722;28;46368;-67
2022/02/10 20:50:56;;;;;;;;;7.25;6.25;;;;;5.52;87.65;101689.25;4920444;28;45241;-66
2022/02/10 20:53:24;;;;;;;;;8.75;7.25;;;;;5.46;87.82;101693.63;4919099;28;45433;-65
2022/02/10 20:55:51;;;;;;;;;5.50;5.50;;;;;5.49;88.31;101711.91;4919170;28;45262;-66
2022/02/10 20:58:22;;;;;;;;;11.00;10.25;;;;;5.46;88.37;101704.06;4919786;28;46985;-66
2022/02/10 21:00:49;;;;;;;;;8.50;7.00;;;;;5.44;88.06;101692.75;4918863;28;45432;-66
2022/02/10 21:03:15;;;;;;;;;6.75;6.75;;;;;5.55;88.02;101717.09;4919902;28;45375;-67
2022/02/10 21:05:42;;;;;;;;;7.25;7.25;;;;;5.54;88.51;101708.41;4920163;28;45660;-69
2022/02/10 21:10:40;;;;;;;;;11.00;11.00;;;;;5.50;88.09;101705.81;4920230;28;45265;-66
2022/02/10 21:13:07;;;;;;;;;11.25;8.50;;;;;5.58;88.17;101719.72;4920722;28;45342;-67
2022/02/10 21:15:47;;;;;;;;;12.25;12.00;;;;;5.58;88.59;101724.94;4921428;28;45568;-67
2022/02/10 21:18:14;;;;;;;;;12.75;8.50;;;;;5.62;88.34;101729.28;4920191;28;45377;-65
2022/02/10 21:20:41;;;;;;;;;9.00;6.75;;;;;5.62;87.74;101721.44;4920062;28;45379;-66
2022/02/10 21:23:31;;;;;;;;;13.75;11.75;;;;;5.61;87.81;101724.94;4920187;28;45259;-67
2022/02/10 21:25:59;;;;;;;;;6.50;6.00;;;;;5.40;87.37;101703.22;4934287;28;45606;-67
2022/02/10 21:28:31;;;;;;;;;11.00;7.00;;;;;5.54;87.80;101729.28;4919777;28;45341;-66
2022/02/10 21:31:00;;;;;;;;;7.00;6.00;;;;;5.54;87.21;101725.81;4919168;28;45435;-66
2022/02/10 22:18:58;;;;;;;;;9.25;7.00;;;;;5.44;85.74;101745.81;4921307;28;45344;-66
2022/02/10 22:21:38;;;;;;;;;9.75;8.00;;;;;5.45;86.57;101746.69;4920772;28;46182;-65
2022/02/10 22:24:09;;;;;;;;;7.00;7.00;;;;;5.49;86.57;101758.88;4920313;28;45402;-66
2022/02/10 22:26:37;;;;;;;;;11.00;10.00;;;;;5.50;86.49;101758.84;4921693;28;45224;-65
2022/02/10 22:31:43;;;;;;;;;12.75;8.75;;;;;5.47;85.74;101753.63;4918059;28;46297;-69
2022/02/10 22:36:46;;;;;;;;;8.75;8.75;;;;;5.49;86.11;101758.88;4918362;28;45372;-68
2022/02/10 22:39:13;;;;;;;;;12.00;9.75;;;;;5.29;85.99;101737.97;4918673;28;45232;-66
2022/02/10 22:41:39;;;;;;;;;13.00;12.25;;;;;5.48;86.17;101767.56;4918381;28;46928;-68
2022/02/10 22:44:05;;;;;;;;;18.00;13.00;;;;;5.35;86.41;101745.81;4920349;28;45326;-67
2022/02/10 22:46:31;;;;;;;;;12.75;10.25;;;;;5.53;86.81;101771.91;4920518;28;45534;-65
2022/02/10 22:48:57;;;;;;;;;14.75;9.25;;;;;5.53;86.29;101773.66;4917472;28;45486;-66
2022/02/10 22:51:26;;;;;;;;;8.50;8.50;;;;;5.48;86.46;101772.78;4919656;28;45436;-66
2022/02/10 22:53:52;;;;;;;;;12.00;12.00;;;;;5.43;86.11;101770.16;4922006;28;45407;-66
2022/02/10 22:56:20;;;;;;;;;16.00;11.25;;;;;5.37;86.41;101772.78;4920384;28;45187;-67
2022/02/10 22:58:46;;;;;;;;;15.25;12.50;;;;;5.34;86.95;101773.66;4922284;28;45529;-67
2022/02/10 23:01:13;;;;;;;;;14.75;14.00;;;;;5.26;86.26;101764.94;4921812;28;45580;-66
2022/02/10 23:03:41;;;;;;;;;12.75;8.75;;;;;5.31;86.93;101776.25;4918870;28;45407;-66
2022/02/10 23:06:08;;;;;;;;;12.25;11.25;;;;;5.30;86.26;101776.25;4920753;28;45391;-66
2022/02/10 23:08:35;;;;;;;;;15.25;12.50;;;;;5.12;86.46;101751.88;4918382;28;45488;-66
2022/02/10 23:11:01;;;;;;;;;13.75;12.50;;;;;5.25;85.86;101787.56;4918431;28;46157;-67
2022/02/10 23:13:30;;;;;;;;;13.25;11.75;;;;;5.18;85.99;101787.53;4918253;28;45358;-66
2022/02/10 23:15:59;;;;;;;;;13.50;12.00;;;;;5.15;85.76;101792.72;4918965;28;45382;-67
2022/02/10 23:18:30;;;;;;;;;15.50;13.50;;;;;5.11;86.55;101802.31;4918495;28;45442;-67
2022/02/10 23:20:58;;;;;;;;;11.50;11.50;;;;;5.04;86.28;101805.78;4918075;28;45252;-67
2022/02/10 23:23:26;;;;;;;;;15.50;13.00;;;;;5.02;86.28;101805.75;4917755;28;45290;-67
2022/02/10 23:25:52;;;;;;;;;10.00;7.25;;;;;5.00;86.54;101817.06;4925757;28;45398;-68
2022/02/10 23:28:23;;;;;;;;;16.50;13.75;;;;;4.95;86.53;101820.53;4922364;28;45532;-67
2022/02/10 23:30:50;;;;;;;;;15.00;12.75;;;;;4.89;86.76;101806.59;4917793;28;45408;-66
2022/02/10 23:33:32;;;;;;;;;16.00;13.00;;;;;4.91;86.71;101818.78;4917623;28;45331;-68
2022/02/10 23:38:35;;;;;;;;;19.75;16.25;;;;;4.86;87.03;101820.50;4920665;28;45493;-66
2022/02/10 23:43:39;;;;;;;;;15.25;14.75;;;;;4.80;87.01;101828.28;4902043;28;45411;-68
2022/02/10 23:46:05;;;;;;;;;17.00;14.75;;;;;4.70;86.61;101822.16;4915597;28;45419;-66
2022/02/10 23:48:32;;;;;;;;;27.25;16.75;;;;;4.75;87.28;101832.59;4923577;28;45544;-64
2022/02/10 23:50:59;;;;;;;;;21.00;16.25;;;;;4.71;87.45;101836.03;4924477;28;46949;-66
2022/02/10 23:53:24;;;;;;;;;19.75;16.25;;;;;4.68;87.34;101839.53;4923136;28;45375;-68
2022/02/10 23:55:50;;;;;;;;;16.25;14.00;;;;;4.68;87.57;101849.97;4921312;28;45468;-69
